Time;durP1;ratioP1;P1;durP2;ratioP2;P2;SDS_P1;SDS_P2;PMS_P1;PMS_P2;Temp;Humidity;BMP_temperature;BMP_pressure;BME280_temperature;BME280_humidity;BME280_pressure;Samples;Min_cycle;Max_cycle;Signal;HPM_P1;HPM_P2
2023/08/24 00:00:16;;;;;;;8.82;4.07;;;;;;;-142.57;42.03;115900.28;4976725;28;20066;-83
2023/08/24 00:02:41;;;;;;;6.95;4.38;;;;;;;-142.57;41.65;115900.28;4977999;28;20054;-84
2023/08/24 00:05:07;;;;;;;10.93;4.30;;;;;;;-142.57;42.13;115900.28;4979124;28;20035;-87
2023/08/24 00:07:32;;;;;;;6.03;3.90;;;;;;;-142.57;42.12;115900.28;4976584;28;20042;-84
2023/08/24 00:09:58;;;;;;;11.68;3.92;;;;;;;-142.57;42.12;115900.28;4977891;28;20440;-84
2023/08/24 00:12:24;;;;;;;4.38;3.80;;;;;;;-142.57;42.36;115900.28;4976638;28;20046;-85
2023/08/24 00:14:49;;;;;;;8.38;4.13;;;;;;;-142.57;43.13;115900.28;4977267;28;20492;-85
2023/08/24 00:19:42;;;;;;;9.60;3.80;;;;;;;-142.57;42.66;115900.28;4975465;28;20500;-84
2023/08/24 00:22:07;;;;;;;8.23;4.03;;;;;;;-142.57;42.54;115900.28;4976428;28;20046;-84
2023/08/24 00:24:35;;;;;;;6.13;3.60;;;;;;;-142.57;42.85;115900.28;4975767;28;20034;-85
2023/08/24 00:27:01;;;;;;;17.98;4.05;;;;;;;-142.57;42.83;115900.28;4976859;28;20463;-85
2023/08/24 00:29:26;;;;;;;5.07;3.50;;;;;;;-142.57;42.39;115900.28;4976399;28;20110;-85
2023/08/24 00:31:52;;;;;;;7.40;3.88;;;;;;;-142.57;42.48;115900.28;4959997;28;20129;-84
2023/08/24 00:34:18;;;;;;;8.18;3.90;;;;;;;-142.57;42.41;115900.28;4974559;28;20132;-83
2023/08/24 00:36:43;;;;;;;7.78;3.70;;;;;;;-142.57;43.07;115900.28;4974388;28;20164;-85
2023/08/24 00:39:09;;;;;;;7.40;4.30;;;;;;;-142.57;43.22;115900.28;4974074;28;20133;-83
2023/08/24 00:41:36;;;;;;;10.48;4.30;;;;;;;-142.57;43.42;115900.28;4974567;28;20035;-85
2023/08/24 00:44:02;;;;;;;10.15;3.53;;;;;;;-142.57;43.48;115900.28;4975933;28;20066;-84
2023/08/24 00:46:28;;;;;;;6.40;3.75;;;;;;;-142.57;43.86;115900.28;4974260;28;20054;-83
2023/08/24 00:48:57;;;;;;;9.40;4.35;;;;;;;-142.57;43.60;115900.28;4973831;28;20042;-84
2023/08/24 00:51:24;;;;;;;8.32;4.00;;;;;;;-142.57;43.29;115900.28;4975087;28;20045;-84
2023/08/24 00:53:50;;;;;;;6.15;3.75;;;;;;;-142.57;43.14;115900.28;4974154;28;20122;-83
2023/08/24 00:56:15;;;;;;;10.50;3.53;;;;;;;-142.57;43.25;115900.28;4975962;28;20110;-84
2023/08/24 00:58:41;;;;;;;13.45;4.45;;;;;;;-142.57;43.54;115900.28;4975740;28;20030;-84
2023/08/24 01:01:07;;;;;;;5.25;3.67;;;;;;;-142.57;44.00;115900.28;4975839;28;20062;-83
2023/08/24 01:03:33;;;;;;;6.22;4.22;;;;;;;-142.57;44.05;115900.28;4974292;28;20121;-82
2023/08/24 01:05:58;;;;;;;10.40;3.92;;;;;;;-142.57;44.01;115900.28;4975996;28;20110;-84
2023/08/24 01:08:24;;;;;;;9.50;4.20;;;;;;;-142.57;44.17;115900.28;4976268;28;20431;-83
2023/08/24 01:10:56;;;;;;;6.32;3.80;;;;;;;-142.57;44.11;115900.28;4975957;28;20186;-82
2023/08/24 01:13:32;;;;;;;9.15;4.40;;;;;;;-142.57;43.70;115900.28;4976370;28;20035;-82
2023/08/24 01:16:17;;;;;;;11.25;4.47;;;;;;;-142.57;44.57;115900.28;4986756;28;20049;-81
2023/08/24 01:18:44;;;;;;;9.63;4.80;;;;;;;-142.57;44.05;115900.28;4991811;28;20146;-83
2023/08/24 01:21:10;;;;;;;6.80;3.92;;;;;;;-142.57;44.36;115900.28;4979521;28;20043;-82
2023/08/24 01:23:49;;;;;;;8.52;4.07;;;;;;;-142.57;44.25;115900.28;4991101;28;20034;-83
2023/08/24 01:26:18;;;;;;;8.32;4.03;;;;;;;-142.57;43.67;115900.28;4976589;28;20043;-83
2023/08/24 01:28:45;;;;;;;9.68;4.55;;;;;;;-142.57;44.37;115900.28;4976325;28;20041;-81
2023/08/24 01:31:14;;;;;;;9.80;4.57;;;;;;;-142.57;44.51;115900.28;4975956;28;20082;-82
2023/08/24 01:33:40;;;;;;;7.90;4.85;;;;;;;-142.57;44.64;115900.28;4975944;28;20038;-82
2023/08/24 01:36:07;;;;;;;10.55;4.22;;;;;;;-142.57;44.41;115900.28;4975706;28;20093;-86
2023/08/24 01:38:32;;;;;;;8.43;4.18;;;;;;;-142.57;44.49;115900.28;4973236;28;20492;-87
2023/08/24 01:41:26;;;;;;;8.75;4.20;;;;;;;-142.57;44.33;115900.28;4973470;28;20081;-83
2023/08/24 01:43:55;;;;;;;8.93;4.43;;;;;;;-142.57;45.16;115900.28;4974394;28;20117;-85
2023/08/24 01:46:22;;;;;;;12.30;4.18;;;;;;;-142.57;45.84;115900.28;4972911;28;20038;-85
2023/08/24 01:48:49;;;;;;;8.18;3.92;;;;;;;-142.57;45.83;115900.28;4974608;28;20038;-87
2023/08/24 01:51:16;;;;;;;6.47;4.00;;;;;;;-142.57;45.44;115900.28;4974664;28;20377;-84
2023/08/24 01:53:43;;;;;;;9.15;3.90;;;;;;;-142.57;46.02;115900.28;4973131;28;20034;-84
2023/08/24 01:56:10;;;;;;;5.13;4.00;;;;;;;-142.57;45.12;115900.28;4974327;28;20105;-84
2023/08/24 01:58:36;;;;;;;11.10;5.07;;;;;;;-142.57;46.24;115900.28;4973356;28;20424;-84
2023/08/24 02:01:01;;;;;;;11.48;4.60;;;;;;;-142.57;46.34;115900.28;4973008;28;20133;-84
2023/08/24 02:03:27;;;;;;;8.35;4.45;;;;;;;-142.57;46.26;115900.28;4975470;28;20164;-84
2023/08/24 02:05:52;;;;;;;8.52;4.95;;;;;;;-142.57;46.84;115900.28;4976334;28;20058;-85
2023/08/24 02:08:18;;;;;;;8.00;4.22;;;;;;;-142.57;46.33;115900.28;4977075;28;20051;-84
2023/08/24 02:10:44;;;;;;;7.28;4.50;;;;;;;-142.57;46.53;115900.28;4978350;28;20034;-83
2023/08/24 02:13:09;;;;;;;7.78;4.82;;;;;;;-142.57;47.23;115900.28;4977566;28;20075;-85
2023/08/24 02:15:35;;;;;;;7.32;4.32;;;;;;;-142.57;47.56;115900.28;4960525;28;20050;-86
2023/08/24 02:18:04;;;;;;;11.82;4.88;;;;;;;-142.57;47.49;115900.28;4977558;28;20038;-84
2023/08/24 02:20:30;;;;;;;8.32;4.28;;;;;;;-142.57;47.60;115900.28;4976616;28;20121;-83
2023/08/24 02:22:56;;;;;;;8.48;4.53;;;;;;;-142.57;47.12;115900.28;4977678;28;20065;-83
2023/08/24 02:25:21;;;;;;;11.40;4.35;;;;;;;-142.57;47.91;115900.28;4976259;28;20034;-84
2023/08/24 02:27:48;;;;;;;6.30;4.30;;;;;;;-142.57;48.02;115900.28;4976564;28;20501;-85
2023/08/24 02:30:14;;;;;;;11.38;4.40;;;;;;;-142.57;47.73;115900.28;4975838;28;20456;-84
2023/08/24 02:32:39;;;;;;;8.93;4.57;;;;;;;-142.57;47.91;115900.28;4977334;28;20111;-87
2023/08/24 02:35:06;;;;;;;13.85;4.68;;;;;;;-142.57;47.81;115900.28;4978349;28;20129;-88
2023/08/24 02:37:31;;;;;;;13.50;4.13;;;;;;;-142.57;47.10;115900.28;4986102;28;20094;-85
2023/08/24 02:39:57;;;;;;;8.30;4.85;;;;;;;-142.57;47.55;115900.28;4978624;28;20369;-88
2023/08/24 02:42:22;;;;;;;5.88;4.40;;;;;;;-142.57;47.04;115900.28;4976716;28;20035;-86
2023/08/24 02:44:48;;;;;;;8.82;4.47;;;;;;;-142.57;47.24;115900.28;4977495;28;20035;-85
2023/08/24 02:47:14;;;;;;;11.45;4.32;;;;;;;-142.57;47.47;115900.28;4977904;28;20027;-84
2023/08/24 02:49:40;;;;;;;10.60;4.43;;;;;;;-142.57;47.68;115900.28;4978143;28;20110;-86
2023/08/24 02:52:06;;;;;;;7.03;4.30;;;;;;;-142.57;47.70;115900.28;4976582;28;20452;-89
2023/08/24 02:54:31;;;;;;;9.63;4.40;;;;;;;-142.57;47.99;115900.28;4976479;28;20461;-86
2023/08/24 02:56:57;;;;;;;6.85;4.20;;;;;;;-142.57;48.36;115900.28;4978022;28;20480;-83
2023/08/24 02:59:23;;;;;;;10.15;4.53;;;;;;;-142.57;48.10;115900.28;4976093;28;20073;-84
2023/08/24 03:01:49;;;;;;;5.50;4.18;;;;;;;-142.57;47.58;115900.28;4970856;28;20102;-84
2023/08/24 03:04:15;;;;;;;10.27;4.50;;;;;;;-142.57;47.00;115900.28;4977420;28;20515;-87
2023/08/24 03:06:40;;;;;;;7.55;4.20;;;;;;;-142.57;47.97;115900.28;4976422;28;20069;-85
2023/08/24 03:09:06;;;;;;;7.80;4.32;;;;;;;-142.57;48.49;115900.28;4977522;28;20042;-87
2023/08/24 03:11:31;;;;;;;7.50;4.65;;;;;;;-142.57;48.55;115900.28;4976758;28;20179;-87
2023/08/24 03:13:57;;;;;;;14.07;4.88;;;;;;;-142.57;48.80;115900.28;4976915;28;20070;-85
2023/08/24 03:16:22;;;;;;;8.25;4.13;;;;;;;-142.57;48.79;115900.28;4974074;28;20034;-84
2023/08/24 03:18:49;;;;;;;6.40;4.28;;;;;;;-142.57;48.83;115900.28;4975022;28;20054;-88
2023/08/24 03:21:16;;;;;;;7.70;4.00;;;;;;;-142.57;49.27;115900.28;4975070;28;20402;-86
2023/08/24 03:23:42;;;;;;;10.18;4.70;;;;;;;-142.57;48.86;115900.28;4976718;28;20045;-83
2023/08/24 03:26:07;;;;;;;8.15;4.28;;;;;;;-142.57;48.59;115900.28;4975311;28;20384;-85
2023/08/24 03:28:33;;;;;;;8.20;4.40;;;;;;;-142.57;49.51;115900.28;4974844;28;20078;-85
2023/08/24 03:31:00;;;;;;;8.90;4.40;;;;;;;-142.57;49.86;115900.28;4975357;28;20034;-85
2023/08/24 03:33:27;;;;;;;5.25;4.00;;;;;;;-142.57;49.71;115900.28;4977437;28;20035;-87
2023/08/24 03:35:54;;;;;;;8.80;4.25;;;;;;;-142.57;49.48;115900.28;4977110;28;20023;-86
2023/08/24 03:38:19;;;;;;;10.27;4.53;;;;;;;-142.57;49.38;115900.28;4972592;28;20035;-87
2023/08/24 03:40:45;;;;;;;10.55;4.30;;;;;;;-142.57;49.77;115900.28;4955571;28;20102;-87
2023/08/24 03:43:10;;;;;;;13.23;4.65;;;;;;;-142.57;49.38;115900.28;4956315;28;20114;-86
2023/08/24 03:45:37;;;;;;;7.90;4.60;;;;;;;-142.57;49.33;115900.28;4955579;28;20476;-86
2023/08/24 03:48:04;;;;;;;12.63;4.13;;;;;;;-142.57;49.47;115900.28;4956177;28;20054;-86
2023/08/24 03:50:29;;;;;;;8.77;4.10;;;;;;;-142.57;49.67;115900.28;4971604;28;20039;-87
2023/08/24 03:52:55;;;;;;;7.07;4.35;;;;;;;-142.57;50.04;115900.28;4962276;28;20042;-86
2023/08/24 03:55:21;;;;;;;13.30;4.43;;;;;;;-142.57;50.32;115900.28;4961527;28;20039;-85
2023/08/24 03:57:47;;;;;;;11.85;4.68;;;;;;;-142.57;50.73;115900.28;4971721;28;20039;-84
2023/08/24 04:00:14;;;;;;;11.82;4.40;;;;;;;-142.57;50.63;115900.28;4956721;29;20428;-83
2023/08/24 04:02:43;;;;;;;8.65;4.88;;;;;;;-142.57;51.49;115900.28;4955448;29;20039;-85
2023/08/24 04:05:12;;;;;;;10.70;4.60;;;;;;;-142.57;51.74;115900.28;4971370;28;20105;-85
2023/08/24 04:07:39;;;;;;;9.40;4.15;;;;;;;-142.57;52.01;115900.28;4955488;28;20043;-85
2023/08/24 04:10:06;;;;;;;8.00;4.13;;;;;;;-142.57;52.29;115900.28;4971236;28;20046;-84
2023/08/24 04:12:32;;;;;;;15.43;4.93;;;;;;;-142.57;53.60;115900.28;4971152;28;20023;-83
2023/08/24 04:15:00;;;;;;;8.45;4.63;;;;;;;-142.57;53.92;115900.28;4956214;29;20061;-83
2023/08/24 04:17:28;;;;;;;7.43;4.90;;;;;;;-142.57;55.03;115900.28;4955869;28;20031;-81
2023/08/24 04:19:54;;;;;;;11.80;5.35;;;;;;;-142.57;55.76;115900.28;4954280;28;20087;-84
2023/08/24 04:22:19;;;;;;;14.95;5.97;;;;;;;-142.57;56.04;115900.28;4955756;29;20094;-83
2023/08/24 04:24:45;;;;;;;9.65;5.05;;;;;;;-142.57;56.83;115900.28;4976715;28;20476;-80
2023/08/24 04:27:11;;;;;;;13.40;5.68;;;;;;;-142.57;57.04;115900.28;4986705;28;20547;-85
2023/08/24 04:29:36;;;;;;;7.05;4.57;;;;;;;-142.57;57.20;115900.28;4983296;28;20181;-82
2023/08/24 04:32:02;;;;;;;6.95;4.82;;;;;;;-142.57;57.17;115900.28;4985111;28;20547;-82
2023/08/24 04:34:28;;;;;;;7.65;5.07;;;;;;;-142.57;57.77;115900.28;4983806;28;20035;-80
2023/08/24 04:36:54;;;;;;;14.88;4.82;;;;;;;-142.57;57.26;115900.28;4985780;28;20409;-83
2023/08/24 04:39:20;;;;;;;9.75;4.85;;;;;;;-142.57;55.92;115900.28;4993996;28;20046;-82
2023/08/24 04:41:45;;;;;;;8.68;4.80;;;;;;;-142.57;56.96;115900.28;4994381;28;20037;-84
2023/08/24 04:44:11;;;;;;;10.38;4.90;;;;;;;-142.57;57.14;115900.28;4993907;28;20209;-82
2023/08/24 04:46:36;;;;;;;15.95;4.80;;;;;;;-142.57;56.50;115900.28;4977188;28;20046;-81
2023/08/24 04:49:03;;;;;;;8.57;4.68;;;;;;;-142.57;56.28;115900.28;4974829;28;20031;-83
2023/08/24 04:51:29;;;;;;;12.00;4.80;;;;;;;-142.57;56.00;115900.28;4974638;28;20050;-82
2023/08/24 04:53:54;;;;;;;9.65;5.05;;;;;;;-142.57;56.07;115900.28;4974755;28;20101;-80
2023/08/24 04:56:20;;;;;;;9.30;4.50;;;;;;;-142.57;55.45;115900.28;4974667;28;20180;-83
2023/08/24 04:58:56;;;;;;;9.10;4.90;;;;;;;-142.57;55.34;115900.28;4974949;28;20057;-82
2023/08/24 05:01:24;;;;;;;8.15;5.40;;;;;;;-142.57;54.38;115900.28;4974080;28;20109;-84
2023/08/24 05:03:54;;;;;;;9.35;5.10;;;;;;;-142.57;55.24;115900.28;4974567;28;20480;-83
2023/08/24 05:06:20;;;;;;;13.13;5.18;;;;;;;-142.57;55.23;115900.28;4974865;28;20101;-86
2023/08/24 05:08:46;;;;;;;11.90;5.22;;;;;;;-142.57;54.81;115900.28;4977274;28;20031;-88
2023/08/24 05:11:18;;;;;;;8.00;5.00;;;;;;;-142.57;54.34;115900.28;4983222;28;20031;-88
2023/08/24 05:13:44;;;;;;;12.93;4.97;;;;;;;-142.57;53.66;115900.28;4944765;28;20043;-87
2023/08/24 05:16:10;;;;;;;14.93;4.80;;;;;;;-142.57;53.24;115900.28;4977701;28;20034;-81
2023/08/24 05:18:37;;;;;;;7.78;4.78;;;;;;;-142.57;53.24;115900.28;4978171;28;20054;-85
2023/08/24 05:21:03;;;;;;;14.43;5.10;;;;;;;-142.57;53.43;115900.28;4975617;28;20038;-89
2023/08/24 05:23:33;;;;;;;15.20;5.18;;;;;;;-142.57;52.29;115900.28;4974862;28;20050;-84
2023/08/24 05:25:59;;;;;;;16.02;5.28;;;;;;;-142.57;51.61;115900.28;4979269;28;20057;-85
2023/08/24 05:28:29;;;;;;;14.35;5.25;;;;;;;-142.57;50.91;115900.28;4978420;28;20047;-86
2023/08/24 05:30:55;;;;;;;11.80;5.40;;;;;;;-142.57;49.38;115900.28;4974602;28;20109;-86
2023/08/24 05:33:22;;;;;;;9.90;5.28;;;;;;;-142.57;48.78;115900.28;4974805;28;20035;-83
2023/08/24 05:35:48;;;;;;;15.00;5.53;;;;;;;-142.57;49.02;115900.28;4974702;28;20035;-87
2023/08/24 05:38:15;;;;;;;15.00;5.32;;;;;;;-142.57;49.22;115900.28;4976334;28;20035;-83
2023/08/24 05:40:42;;;;;;;16.92;5.18;;;;;;;-142.57;49.12;115900.28;4978634;28;20071;-84
2023/08/24 05:43:09;;;;;;;13.80;4.88;;;;;;;-142.57;47.29;115900.28;4978408;28;20035;-82
2023/08/24 05:45:39;;;;;;;19.13;5.20;;;;;;;-142.57;47.24;115900.28;4978470;28;20057;-82
2023/08/24 05:48:05;;;;;;;18.48;5.30;;;;;;;-142.57;47.25;115900.28;4978432;28;20571;-84
2023/08/24 05:50:34;;;;;;;12.25;4.70;;;;;;;-142.57;45.50;115900.28;4978887;28;20476;-82
2023/08/24 05:52:59;;;;;;;14.23;5.05;;;;;;;-142.57;43.42;115900.28;4981194;28;20436;-87
2023/08/24 05:55:25;;;;;;;12.77;4.53;;;;;;;-142.57;44.40;115900.28;4979029;28;20047;-84
2023/08/24 05:57:51;;;;;;;10.50;4.78;;;;;;;-142.57;44.75;115900.28;4979556;28;20031;-89
2023/08/24 06:00:18;;;;;;;10.30;4.30;;;;;;;-142.57;44.05;115900.28;4978612;28;20511;-84
2023/08/24 06:02:43;;;;;;;10.50;4.28;;;;;;;-142.57;42.99;115900.28;4978168;28;20026;-83
2023/08/24 06:05:11;;;;;;;15.63;4.43;;;;;;;-142.57;42.84;115900.28;4978532;28;20031;-83
2023/08/24 06:07:37;;;;;;;9.35;4.95;;;;;;;-142.57;43.04;115900.28;4979010;28;20090;-83
2023/08/24 06:10:02;;;;;;;10.23;4.43;;;;;;;-142.57;41.25;115900.28;4977818;28;20046;-83
2023/08/24 06:12:28;;;;;;;6.93;4.47;;;;;;;-142.57;42.29;115900.28;4978132;28;20046;-84
2023/08/24 06:14:53;;;;;;;12.80;5.03;;;;;;;-142.57;40.37;115900.28;4978817;28;20102;-84
2023/08/24 06:17:22;;;;;;;8.38;5.07;;;;;;;-142.57;41.80;115900.28;4980252;28;20043;-86
2023/08/24 06:19:47;;;;;;;15.07;5.32;;;;;;;-142.57;41.05;115900.28;4981346;28;20054;-87
2023/08/24 06:22:13;;;;;;;13.68;5.35;;;;;;;-142.57;41.56;115900.28;4981604;28;20042;-88
2023/08/24 06:24:39;;;;;;;18.02;5.63;;;;;;;-142.57;39.47;115900.28;4978468;28;20035;-87
2023/08/24 06:27:04;;;;;;;16.55;6.20;;;;;;;-142.57;38.89;115900.28;4978056;28;20455;-85
2023/08/24 06:29:30;;;;;;;11.98;5.90;;;;;;;-142.57;39.20;115900.28;4983599;28;20027;-89
2023/08/24 06:31:55;;;;;;;15.02;5.47;;;;;;;-142.57;39.13;115900.28;4978477;28;20498;-90
2023/08/24 06:34:21;;;;;;;20.90;5.97;;;;;;;-142.57;38.81;115900.28;4978987;28;20121;-85
2023/08/24 06:36:47;;;;;;;14.65;6.05;;;;;;;-142.57;38.34;115900.28;4977786;28;20445;-84
2023/08/24 06:39:13;;;;;;;20.02;7.05;;;;;;;-142.57;38.66;115900.28;4979833;28;20074;-84
2023/08/24 06:41:39;;;;;;;11.50;6.15;;;;;;;-142.57;38.75;115900.28;4979072;28;20046;-87
2023/08/24 06:44:07;;;;;;;17.52;6.00;;;;;;;-142.57;38.14;115900.28;4963836;28;20062;-87
2023/08/24 06:46:33;;;;;;;11.95;6.55;;;;;;;-142.57;38.15;115900.28;4979884;28;20043;-88
2023/08/24 06:48:58;;;;;;;19.98;7.13;;;;;;;-142.57;37.46;115900.28;4993246;28;20031;-86
2023/08/24 06:51:25;;;;;;;31.23;6.63;;;;;;;-142.57;37.85;115900.28;4995984;28;20030;-83
2023/08/24 06:53:51;;;;;;;17.70;6.18;;;;;;;-142.57;37.49;115900.28;4990589;28;20070;-83
2023/08/24 06:56:19;;;;;;;16.15;6.28;;;;;;;-142.57;37.57;115900.28;4986350;28;20041;-83
2023/08/24 06:58:48;;;;;;;12.55;5.63;;;;;;;-142.57;37.06;115900.28;4978433;28;20039;-82
2023/08/24 07:01:14;;;;;;;17.67;6.22;;;;;;;-142.57;36.48;115900.28;4978408;28;20053;-83
2023/08/24 07:03:40;;;;;;;16.55;6.75;;;;;;;-142.57;37.06;115900.28;4979139;28;20448;-84
2023/08/24 07:06:07;;;;;;;9.75;6.32;;;;;;;-142.57;37.07;115900.28;4976868;28;20095;-86
2023/08/24 07:08:32;;;;;;;13.20;6.03;;;;;;;-142.57;36.10;115900.28;4977761;28;20047;-85
2023/08/24 07:11:03;;;;;;;27.15;6.10;;;;;;;-142.57;35.05;115900.28;4976238;28;20035;-84
2023/08/24 07:13:29;;;;;;;15.57;6.30;;;;;;;-142.57;35.01;115900.28;4978856;28;20098;-83
2023/08/24 07:15:55;;;;;;;11.93;5.40;;;;;;;-142.57;35.47;115900.28;4977742;28;20038;-84
2023/08/24 07:18:21;;;;;;;16.23;5.95;;;;;;;-142.57;33.94;115900.28;4978591;28;20191;-88
2023/08/24 07:20:47;;;;;;;12.23;5.95;;;;;;;-142.57;34.16;115900.28;4979927;28;20160;-86
2023/08/24 07:23:12;;;;;;;20.23;5.28;;;;;;;-142.57;34.54;115900.28;4981223;28;20078;-88
2023/08/24 07:25:41;;;;;;;16.15;5.57;;;;;;;-142.57;35.06;115900.28;4980884;28;20122;-87
2023/08/24 07:28:08;;;;;;;13.50;5.47;;;;;;;-142.57;35.48;115900.28;4962155;28;20037;-86
2023/08/24 07:30:35;;;;;;;12.18;5.55;;;;;;;-142.57;34.61;115900.28;4979265;28;20037;-90
2023/08/24 07:33:04;;;;;;;18.60;6.95;;;;;;;-142.57;33.63;115900.28;4980761;28;20038;-88
2023/08/24 07:35:33;;;;;;;16.20;6.78;;;;;;;-142.57;33.63;115900.28;4980415;28;20034;-88
2023/08/24 07:38:00;;;;;;;20.52;6.82;;;;;;;-142.57;33.18;115900.28;4978648;28;20034;-85
2023/08/24 07:40:26;;;;;;;16.23;8.15;;;;;;;-142.57;33.72;115900.28;4976698;28;20040;-89
2023/08/24 07:42:55;;;;;;;11.13;7.25;;;;;;;-142.57;33.29;115900.28;4972883;28;20492;-86
2023/08/24 07:45:21;;;;;;;14.43;6.90;;;;;;;-142.57;32.90;115900.28;4989266;28;20078;-86
2023/08/24 07:47:46;;;;;;;16.13;7.03;;;;;;;-142.57;32.97;115900.28;4988246;28;20019;-88
2023/08/24 07:50:12;;;;;;;13.45;6.80;;;;;;;-142.57;33.25;115900.28;4988324;28;20066;-85
2023/08/24 07:52:38;;;;;;;14.10;7.13;;;;;;;-142.57;32.47;115900.28;4981633;28;20049;-87
2023/08/24 07:55:06;;;;;;;30.45;6.75;;;;;;;-142.57;32.40;115900.28;4981626;28;20880;-85
2023/08/24 07:57:33;;;;;;;20.15;7.28;;;;;;;-142.57;31.85;115900.28;4997171;28;20034;-87
2023/08/24 07:59:59;;;;;;;16.63;6.85;;;;;;;-142.57;32.31;115900.28;5002811;28;20460;-88
2023/08/24 08:02:25;;;;;;;16.75;7.68;;;;;;;-142.57;31.53;115900.28;4994287;28;20042;-83
2023/08/24 08:04:50;;;;;;;15.85;7.72;;;;;;;-142.57;31.97;115900.28;4991817;28;20039;-86
2023/08/24 08:07:16;;;;;;;23.98;8.18;;;;;;;-142.57;31.83;115900.28;5009601;23;20443;-84
2023/08/24 08:09:45;;;;;;;27.15;7.82;;;;;;;-142.57;31.57;115900.28;5000484;28;20760;-85
2023/08/24 08:12:10;;;;;;;16.60;6.88;;;;;;;-142.57;31.59;115900.28;5001642;28;20040;-89
2023/08/24 08:14:36;;;;;;;18.52;8.43;;;;;;;-142.57;31.70;115900.28;5009885;28;20053;-86
2023/08/24 08:17:01;;;;;;;19.95;9.18;;;;;;;-142.57;31.32;115900.28;5015397;28;20033;-85
2023/08/24 08:19:28;;;;;;;15.40;8.85;;;;;;;-142.57;31.82;115900.28;5006183;28;20030;-89
2023/08/24 08:21:54;;;;;;;17.70;7.55;;;;;;;-142.57;31.34;115900.28;4995253;28;20038;-85
2023/08/24 08:24:19;;;;;;;27.15;7.13;;;;;;;-142.57;30.77;115900.28;4998781;28;20035;-87
2023/08/24 08:26:45;;;;;;;14.55;7.55;;;;;;;-142.57;30.54;115900.28;4999668;28;20046;-86
2023/08/24 08:29:11;;;;;;;17.92;7.65;;;;;;;-142.57;30.97;115900.28;5011586;28;20122;-87
2023/08/24 08:31:37;;;;;;;13.27;6.78;;;;;;;-142.57;30.20;115900.28;4998974;28;20035;-87
2023/08/24 08:34:04;;;;;;;27.58;7.18;;;;;;;-142.57;28.73;115900.28;4997019;28;20046;-87
2023/08/24 08:36:32;;;;;;;23.77;6.90;;;;;;;-142.57;28.56;115900.28;4999568;28;20129;-90
2023/08/24 08:38:58;;;;;;;10.93;6.20;;;;;;;-142.57;29.01;115900.28;5022395;28;20038;-91
2023/08/24 08:41:29;;;;;;;12.27;6.80;;;;;;;-142.57;29.87;115900.28;5011696;28;20478;-86
2023/08/24 08:43:58;;;;;;;19.75;7.10;;;;;;;-142.57;29.05;115900.28;5001803;28;20026;-89
2023/08/24 08:46:23;;;;;;;13.35;7.20;;;;;;;-142.57;29.04;115900.28;5004298;28;20041;-86
2023/08/24 08:48:52;;;;;;;18.60;7.07;;;;;;;-142.57;29.50;115900.28;5008095;28;20503;-85
2023/08/24 08:51:19;;;;;;;14.73;6.57;;;;;;;-142.57;29.38;115900.28;5015007;28;20033;-85
2023/08/24 08:53:44;;;;;;;19.35;6.88;;;;;;;-142.57;30.19;115900.28;4995600;28;20061;-85
2023/08/24 08:56:11;;;;;;;15.02;6.40;;;;;;;-142.57;29.62;115900.28;5009526;28;20026;-84
2023/08/24 08:58:37;;;;;;;14.20;6.22;;;;;;;-142.57;28.85;115900.28;5009564;28;20022;-85
2023/08/24 09:01:04;;;;;;;14.13;7.28;;;;;;;-142.57;28.75;115900.28;4997286;28;20044;-85
2023/08/24 09:03:31;;;;;;;21.23;7.72;;;;;;;-142.57;28.99;115900.28;5004424;28;20033;-85
2023/08/24 09:05:57;;;;;;;15.90;7.40;;;;;;;-142.57;28.46;115900.28;4995915;28;20527;-84
2023/08/24 09:08:26;;;;;;;18.38;6.50;;;;;;;-142.57;28.07;115900.28;5005589;28;20050;-89
2023/08/24 09:10:51;;;;;;;16.13;6.85;;;;;;;-142.57;28.43;115900.28;5012994;28;20030;-87
2023/08/24 09:13:18;;;;;;;13.93;6.38;;;;;;;-142.57;28.26;115900.28;4997454;28;20096;-84
2023/08/24 09:15:45;;;;;;;11.88;6.28;;;;;;;-142.57;27.59;115900.28;5006025;28;20034;-87
2023/08/24 09:18:10;;;;;;;17.83;6.45;;;;;;;-142.57;27.29;115900.28;5017513;28;20029;-86
2023/08/24 09:20:36;;;;;;;10.70;6.20;;;;;;;-142.57;27.24;115900.28;4998414;28;20116;-86
2023/08/24 09:23:03;;;;;;;16.30;6.18;;;;;;;-142.57;26.59;115900.28;4981459;28;20144;-87
2023/08/24 09:25:29;;;;;;;13.98;6.57;;;;;;;-142.57;28.50;115900.28;5004345;28;20049;-88
2023/08/24 09:28:19;;;;;;;16.35;6.40;;;;;;;-142.57;28.50;115900.28;5010109;28;20113;-86
2023/08/24 09:30:45;;;;;;;14.95;6.90;;;;;;;-142.57;29.05;115900.28;4982412;28;20027;-86
2023/08/24 09:33:11;;;;;;;12.63;6.20;;;;;;;-142.57;28.46;115900.28;4994359;28;20137;-84
2023/08/24 09:35:37;;;;;;;16.63;7.20;;;;;;;-142.57;27.67;115900.28;4978213;28;20031;-85
2023/08/24 09:38:35;;;;;;;18.65;6.80;;;;;;;-142.57;28.00;115900.28;4978818;28;20043;-84
2023/08/24 09:41:04;;;;;;;17.05;5.78;;;;;;;-142.57;27.11;115900.28;4960795;28;20455;-83
2023/08/24 09:43:30;;;;;;;15.68;5.00;;;;;;;-142.57;26.75;115900.28;4971580;28;20058;-86
2023/08/24 09:45:56;;;;;;;15.30;5.35;;;;;;;-142.57;26.79;115900.28;4976467;28;20031;-84
2023/08/24 09:48:42;;;;;;;9.13;4.53;;;;;;;-142.57;26.24;115900.28;4977073;28;20138;-86
2023/08/24 09:51:12;;;;;;;13.25;4.78;;;;;;;-142.57;26.15;115900.28;4990828;28;20038;-84
2023/08/24 09:53:42;;;;;;;13.45;4.97;;;;;;;-142.57;25.86;115900.28;4984550;28;20058;-81
2023/08/24 09:56:08;;;;;;;10.20;4.90;;;;;;;-142.57;25.38;115900.28;5006963;28;20121;-87
2023/08/24 09:58:35;;;;;;;8.95;4.72;;;;;;;-142.57;25.41;115900.28;5014011;28;20491;-86
2023/08/24 10:01:03;;;;;;;10.02;4.80;;;;;;;-142.57;26.09;115900.28;5009737;28;20423;-86
2023/08/24 10:03:32;;;;;;;13.55;4.93;;;;;;;-142.57;26.48;115900.28;4995210;28;20125;-82
2023/08/24 10:06:00;;;;;;;6.68;4.72;;;;;;;-142.57;25.71;115900.28;4997233;28;20084;-84
2023/08/24 10:08:28;;;;;;;9.50;5.30;;;;;;;-142.57;25.60;115900.28;5000183;28;20035;-85
2023/08/24 10:10:58;;;;;;;13.90;5.97;;;;;;;-142.57;26.32;115900.28;4998487;28;20042;-84
2023/08/24 10:13:34;;;;;;;13.68;5.18;;;;;;;-142.57;26.40;115900.28;4995009;28;20070;-84
2023/08/24 10:16:00;;;;;;;12.75;5.93;;;;;;;-142.57;26.46;115900.28;4997441;28;20042;-89
2023/08/24 10:18:27;;;;;;;16.05;5.90;;;;;;;-142.57;26.13;115900.28;5003162;28;20030;-89
2023/08/24 10:20:53;;;;;;;11.27;5.97;;;;;;;-142.57;26.38;115900.28;4984160;28;20030;-88
2023/08/24 10:23:19;;;;;;;20.40;6.03;;;;;;;-142.57;26.00;115900.28;4994064;28;20037;-88
2023/08/24 10:25:46;;;;;;;7.93;5.00;;;;;;;-142.57;25.63;115900.28;4998092;28;20042;-89
2023/08/24 10:28:13;;;;;;;10.02;5.63;;;;;;;-142.57;25.83;115900.28;4999320;28;20040;-90
2023/08/24 10:30:40;;;;;;;11.27;5.75;;;;;;;-142.57;25.67;115900.28;4999856;28;20053;-91
2023/08/24 10:33:06;;;;;;;10.35;4.80;;;;;;;-142.57;25.33;115900.28;4997305;28;20026;-89
2023/08/24 10:35:32;;;;;;;12.35;5.57;;;;;;;-142.57;25.71;115900.28;5000479;28;20117;-87
2023/08/24 10:37:59;;;;;;;14.68;6.18;;;;;;;-142.57;25.65;115900.28;5001584;28;20444;-85
2023/08/24 10:40:32;;;;;;;12.98;5.43;;;;;;;-142.57;26.52;115900.28;5000805;28;20034;-88
2023/08/24 10:43:01;;;;;;;9.73;5.38;;;;;;;-142.57;25.94;115900.28;4999434;28;20034;-89
2023/08/24 10:45:57;;;;;;;7.88;4.63;;;;;;;-142.57;26.38;115900.28;4998209;28;20026;-87
2023/08/24 10:48:30;;;;;;;11.98;5.13;;;;;;;-142.57;25.34;115900.28;5002755;28;20045;-90
2023/08/24 10:51:16;;;;;;;15.73;5.78;;;;;;;-142.57;25.09;115900.28;4985947;28;20081;-89
2023/08/24 10:53:52;;;;;;;13.63;5.63;;;;;;;-142.57;25.23;115900.28;5001471;28;20049;-90
2023/08/24 10:56:18;;;;;;;11.30;5.05;;;;;;;-142.57;24.37;115900.28;5001691;28;20487;-87
2023/08/24 10:59:08;;;;;;;11.32;5.00;;;;;;;-142.57;24.73;115900.28;5006468;28;20034;-88
2023/08/24 11:01:38;;;;;;;8.10;4.60;;;;;;;-142.57;24.38;115900.28;5000449;28;20122;-87
2023/08/24 11:04:05;;;;;;;11.10;4.88;;;;;;;-142.57;24.02;115900.28;4990732;28;20027;-83
2023/08/24 11:06:31;;;;;;;11.77;5.00;;;;;;;-142.57;23.86;115900.28;4992753;28;20448;-84